createdAt,value
2023-04-28T00:02:24.612Z,101283.42
2023-04-28T00:04:53.104Z,101283.42
2023-04-28T00:07:21.600Z,101281.70
2023-04-28T00:09:49.625Z,101281.70
2023-04-28T00:12:17.664Z,101279.80
2023-04-28T00:14:45.734Z,101279.98
2023-04-28T00:17:14.081Z,101285.15
2023-04-28T00:19:42.348Z,101281.52
2023-04-28T00:22:10.577Z,101286.02
2023-04-28T00:24:38.686Z,101285.83
2023-04-28T00:27:07.605Z,101286.34
2023-04-28T00:29:36.882Z,101288.60
2023-04-28T00:32:05.148Z,101297.74
2023-04-28T00:34:34.432Z,101302.58
2023-04-28T00:37:02.622Z,101298.42
2023-04-28T00:39:30.815Z,101300.50
2023-04-28T00:41:58.922Z,101301.35
2023-04-28T00:44:27.205Z,101301.17
2023-04-28T00:46:55.808Z,101297.71
2023-04-28T00:49:23.867Z,101296.33
2023-04-28T00:51:52.221Z,101296.34
2023-04-28T00:54:20.481Z,101295.30
2023-04-28T00:56:49.413Z,101295.66
2023-04-28T00:59:17.632Z,101294.27
2023-04-28T01:01:46.311Z,101302.02
2023-04-28T01:04:16.573Z,101299.27
2023-04-28T01:06:44.952Z,101299.26
2023-04-28T01:09:13.304Z,101301.33
2023-04-28T01:11:42.180Z,101302.36
2023-04-28T01:14:18.081Z,101299.41
2023-04-28T01:16:47.539Z,101295.09
2023-04-28T01:19:22.791Z,101299.92
2023-04-28T01:21:51.249Z,101296.83
2023-04-28T01:24:23.499Z,101291.13
2023-04-28T01:26:51.921Z,101294.04
2023-04-28T01:29:19.978Z,101295.76
2023-04-28T01:31:48.131Z,101296.80
2023-04-28T01:34:16.500Z,101299.23
2023-04-28T01:36:44.777Z,101296.80
2023-04-28T01:39:12.922Z,101296.80
2023-04-28T01:41:42.591Z,101297.13
2023-04-28T01:44:11.971Z,101297.84
2023-04-28T01:46:40.096Z,101297.33
2023-04-28T01:49:08.274Z,101304.39
2023-04-28T01:51:36.312Z,101307.30
2023-04-28T01:54:04.452Z,101307.83
2023-04-28T01:56:32.698Z,101304.20
2023-04-28T01:59:01.836Z,101297.98
2023-04-28T02:01:30.292Z,101300.41
2023-04-28T02:03:58.657Z,101300.73
2023-04-28T02:06:28.116Z,101299.54
2023-04-28T02:08:58.569Z,101304.86
2023-04-28T02:11:26.684Z,101300.55
2023-04-28T02:13:57.941Z,101298.99
2023-04-28T02:16:26.329Z,101298.14
2023-04-28T02:18:54.419Z,101300.19
2023-04-28T02:21:22.459Z,101302.08
2023-04-28T02:23:51.192Z,101303.29
2023-04-28T02:26:19.390Z,101305.16
2023-04-28T02:28:49.155Z,101298.61
2023-04-28T02:31:18.453Z,101299.46
2023-04-28T02:33:48.122Z,101305.66
2023-04-28T02:36:16.271Z,101306.02
2023-04-28T02:38:45.159Z,101302.91
2023-04-28T02:41:15.115Z,101303.61
2023-04-28T02:43:43.860Z,101301.52
2023-04-28T02:46:12.019Z,101303.41
2023-04-28T02:48:40.968Z,101310.48
2023-04-28T02:51:09.532Z,101307.55
2023-04-28T02:53:37.725Z,101312.20
2023-04-28T02:56:06.533Z,101306.68
2023-04-28T02:58:35.248Z,101312.20
2023-04-28T03:01:03.624Z,101306.84
2023-04-28T03:03:31.908Z,101308.75
2023-04-28T03:06:00.178Z,101303.05
2023-04-28T03:08:28.419Z,101310.80
2023-04-28T03:10:56.760Z,101311.13
2023-04-28T03:13:25.558Z,101307.34
2023-04-28T03:15:53.831Z,101309.57
2023-04-28T03:18:23.450Z,101309.41
2023-04-28T03:20:51.552Z,101308.73
2023-04-28T03:23:21.149Z,101307.16
2023-04-28T03:25:49.373Z,101309.39
2023-04-28T03:28:17.479Z,101309.55
2023-04-28T03:30:46.283Z,101307.82
2023-04-28T03:33:14.357Z,101308.70
2023-04-28T03:35:42.456Z,101312.84
2023-04-28T03:38:10.686Z,101317.48
2023-04-28T03:40:38.832Z,101312.65
2023-04-28T03:43:13.105Z,101313.16
2023-04-28T03:45:51.553Z,101319.72
2023-04-28T03:48:19.852Z,101316.10
2023-04-28T03:50:48.116Z,101317.11
2023-04-28T03:53:17.433Z,101316.75
2023-04-28T03:55:45.688Z,101314.35
2023-04-28T03:58:14.015Z,101316.42
2023-04-28T04:00:42.109Z,101321.77
2023-04-28T04:03:10.551Z,101326.09
2023-04-28T04:05:41.487Z,101326.42
2023-04-28T04:08:09.622Z,101326.96
2023-04-28T04:10:37.651Z,101328.36
2023-04-28T04:13:05.739Z,101328.89
2023-04-28T04:15:34.220Z,101333.39
2023-04-28T04:18:02.886Z,101333.91
2023-04-28T04:20:39.352Z,101337.02
2023-04-28T04:23:08.056Z,101334.45
2023-04-28T04:25:36.321Z,101337.05
2023-04-28T04:28:05.219Z,101338.45
2023-04-28T04:30:33.487Z,101342.09
2023-04-28T04:33:01.991Z,101343.48
2023-04-28T04:35:30.078Z,101342.98
2023-04-28T04:37:58.366Z,101342.65
2023-04-28T04:40:26.875Z,101342.49
2023-04-28T04:42:56.772Z,101342.85
2023-04-28T04:45:28.523Z,101346.98
2023-04-28T04:47:58.199Z,101344.59
2023-04-28T04:50:26.386Z,101346.84
2023-04-28T04:52:57.474Z,101340.64
2023-04-28T04:55:26.149Z,101341.86
2023-04-28T04:57:54.389Z,101344.61
2023-04-28T05:00:41.504Z,101346.35
2023-04-28T05:03:10.675Z,101344.30
2023-04-28T05:05:40.905Z,101344.65
2023-04-28T05:08:21.758Z,101347.58
2023-04-28T05:10:49.860Z,101344.64
2023-04-28T05:13:18.376Z,101348.09
2023-04-28T05:15:46.676Z,101352.07
2023-04-28T05:18:36.107Z,101351.40
2023-04-28T05:21:04.549Z,101349.16
2023-04-28T05:23:34.406Z,101347.77
2023-04-28T05:26:04.159Z,101350.55
2023-04-28T05:28:33.307Z,101350.05
2023-04-28T05:31:02.790Z,101349.02
2023-04-28T05:33:31.690Z,101350.26
2023-04-28T05:36:00.173Z,101351.66
2023-04-28T05:38:28.496Z,101354.41
2023-04-28T05:40:56.939Z,101354.77
2023-04-28T05:43:25.213Z,101349.41
2023-04-28T05:45:55.071Z,101353.05
2023-04-28T05:48:23.573Z,101357.02
2023-04-28T05:50:51.837Z,101353.21
2023-04-28T05:53:20.161Z,101357.52
2023-04-28T05:55:49.042Z,101354.77
2023-04-28T05:58:18.000Z,101357.52
2023-04-28T06:00:47.630Z,101360.27
2023-04-28T06:03:19.141Z,101351.98
2023-04-28T06:05:48.367Z,101350.42
2023-04-28T06:08:16.939Z,101351.45
2023-04-28T06:10:45.269Z,101349.54
2023-04-28T06:13:14.606Z,101347.81
2023-04-28T06:15:43.445Z,101349.88
2023-04-28T06:18:11.993Z,101352.11
2023-04-28T06:20:40.063Z,101355.90
2023-04-28T06:23:09.547Z,101354.67
2023-04-28T06:25:44.591Z,101359.67
2023-04-28T06:28:14.191Z,101367.45
2023-04-28T06:30:42.288Z,101366.57
2023-04-28T06:33:10.839Z,101359.65
2023-04-28T06:35:40.649Z,101358.96
2023-04-28T06:38:08.753Z,101354.97
2023-04-28T06:40:41.108Z,101349.25
2023-04-28T06:43:09.951Z,101353.91
2023-04-28T06:46:01.694Z,101358.22
2023-04-28T06:48:30.215Z,101357.51
2023-04-28T06:50:58.277Z,101352.30
2023-04-28T06:53:26.320Z,101347.10
2023-04-28T06:55:54.692Z,101354.86
2023-04-28T06:58:23.118Z,101353.80
2023-04-28T07:00:51.577Z,101360.02
2023-04-28T07:03:20.030Z,101355.84
2023-04-28T07:05:48.743Z,101353.73
2023-04-28T07:08:17.782Z,101345.25
2023-04-28T07:10:45.799Z,101344.54
2023-04-28T07:13:14.151Z,101341.04
2023-04-28T07:15:42.454Z,101337.37
2023-04-28T07:18:10.634Z,101341.48
2023-04-28T07:20:38.711Z,101351.50
2023-04-28T07:23:07.177Z,101342.28
2023-04-28T07:25:36.484Z,101342.95
2023-04-28T07:28:05.868Z,101338.42
2023-04-28T07:30:34.928Z,101340.64
2023-04-28T07:33:03.416Z,101352.40
2023-04-28T07:35:31.677Z,101346.85
2023-04-28T07:37:59.984Z,101344.77
2023-04-28T07:40:28.252Z,101349.63
2023-04-28T07:42:56.297Z,101338.52
2023-04-28T07:45:24.407Z,101330.70
2023-04-28T07:47:52.530Z,101342.96
2023-04-28T07:50:21.133Z,101336.02
2023-04-28T07:52:49.387Z,101331.66
2023-04-28T07:55:17.515Z,101331.45
2023-04-28T07:57:45.955Z,101330.04
2023-04-28T08:00:14.988Z,101326.20
2023-04-28T08:02:43.196Z,101326.33
2023-04-28T08:05:12.115Z,101326.65
2023-04-28T08:07:40.648Z,101324.71
2023-04-28T08:10:10.742Z,101325.89
2023-04-28T08:12:40.921Z,101334.70
2023-04-28T08:15:10.414Z,101332.27
2023-04-28T08:17:39.126Z,101340.91
2023-04-28T08:20:08.031Z,101343.84
2023-04-28T08:22:36.422Z,101343.85
2023-04-28T08:25:04.912Z,101342.11
2023-04-28T08:27:34.231Z,101340.88
2023-04-28T08:30:02.806Z,101333.77
2023-04-28T08:32:31.137Z,101329.23
2023-04-28T08:34:59.277Z,101324.89
2023-04-28T08:37:28.123Z,101324.16
2023-04-28T08:40:02.281Z,101324.64
2023-04-28T08:42:32.130Z,101317.34
2023-04-28T08:45:00.272Z,101313.99
2023-04-28T08:47:41.542Z,101308.55
2023-04-28T08:50:10.256Z,101320.63
2023-04-28T08:52:39.615Z,101323.02
2023-04-28T08:55:10.563Z,101318.83
2023-04-28T08:57:59.183Z,101315.31
2023-04-28T09:00:27.391Z,101314.74
2023-04-28T09:02:55.850Z,101314.91
2023-04-28T09:05:24.325Z,101310.19
2023-04-28T09:07:53.814Z,101307.73
2023-04-28T09:10:26.677Z,101304.40
2023-04-28T09:12:56.266Z,101299.33
2023-04-28T09:15:33.861Z,101302.39
2023-04-28T09:18:08.185Z,101302.35
2023-04-28T09:20:37.262Z,101299.53
2023-04-28T09:23:20.488Z,101289.58
2023-04-28T09:25:59.312Z,101295.06
2023-04-28T09:28:29.205Z,101295.87
2023-04-28T09:30:57.440Z,101295.31
2023-04-28T09:33:26.009Z,101291.45
2023-04-28T09:35:54.980Z,101291.56
2023-04-28T09:38:23.701Z,101286.47
2023-04-28T09:40:59.872Z,101294.02
2023-04-28T09:43:33.335Z,101295.84
2023-04-28T09:46:06.489Z,101287.27
2023-04-28T09:48:38.123Z,101296.73
2023-04-28T09:51:08.165Z,101292.73
2023-04-28T09:53:36.925Z,101288.52
2023-04-28T09:56:05.506Z,101286.08
2023-04-28T09:58:40.404Z,101302.01
2023-04-28T10:01:11.752Z,101290.55
2023-04-28T10:03:43.727Z,101286.20
2023-04-28T10:06:11.920Z,101286.17
2023-04-28T10:08:41.522Z,101285.98
2023-04-28T10:11:10.758Z,101286.34
2023-04-28T10:13:39.231Z,101285.30
2023-04-28T10:16:08.284Z,101287.91
2023-04-28T10:18:39.180Z,101287.21
2023-04-28T10:21:08.485Z,101286.48
2023-04-28T10:24:05.192Z,101283.90
2023-04-28T10:27:09.392Z,101278.25
2023-04-28T10:29:38.296Z,101282.53
2023-04-28T10:32:19.876Z,101275.26
2023-04-28T10:34:48.529Z,101271.27
2023-04-28T10:37:18.513Z,101274.89
2023-04-28T10:40:36.069Z,101276.58
2023-04-28T10:43:05.132Z,101271.16
2023-04-28T10:45:57.573Z,101273.19
2023-04-28T10:48:29.555Z,101273.14
2023-04-28T10:51:04.242Z,101276.08
2023-04-28T10:53:52.062Z,101281.77
2023-04-28T10:56:25.451Z,101277.05
2023-04-28T10:59:00.524Z,101277.71
2023-04-28T11:01:32.193Z,101277.84
2023-04-28T11:04:18.278Z,101274.82
2023-04-28T11:06:48.113Z,101276.84
2023-04-28T11:09:16.211Z,101271.17
2023-04-28T11:11:59.703Z,101266.00
2023-04-28T11:14:33.807Z,101261.20
2023-04-28T11:17:07.134Z,101258.66
2023-04-28T11:19:35.185Z,101258.17
2023-04-28T11:22:23.725Z,101256.92
2023-04-28T11:24:59.932Z,101261.47
2023-04-28T11:27:30.413Z,101262.59
2023-04-28T11:29:59.870Z,101259.20
2023-04-28T11:32:29.097Z,101263.35
2023-04-28T11:34:57.433Z,101262.82
2023-04-28T11:37:25.866Z,101265.00
2023-04-28T11:39:54.300Z,101262.46
2023-04-28T11:42:22.728Z,101274.23
2023-04-28T11:44:55.026Z,101275.45
2023-04-28T11:47:34.472Z,101270.76
2023-04-28T11:50:03.430Z,101267.24
2023-04-28T11:52:31.691Z,101255.93
2023-04-28T11:55:02.557Z,101258.12
2023-04-28T11:57:30.787Z,101264.88
2023-04-28T12:00:20.036Z,101263.02
2023-04-28T12:02:48.926Z,101258.98
2023-04-28T12:05:17.398Z,101255.98
2023-04-28T12:07:46.056Z,101253.42
2023-04-28T12:10:19.057Z,101256.20
2023-04-28T12:12:52.682Z,101254.12
2023-04-28T12:15:22.943Z,101256.02
2023-04-28T12:17:51.904Z,101257.89
2023-04-28T12:20:35.361Z,101258.52
2023-04-28T12:23:03.894Z,101255.52
2023-04-28T12:25:34.117Z,101252.54
2023-04-28T12:28:04.765Z,101248.77
2023-04-28T12:30:35.332Z,101247.02
2023-04-28T12:33:04.358Z,101249.25
2023-04-28T12:35:33.341Z,101247.75
2023-04-28T12:38:01.504Z,101247.99
2023-04-28T12:40:29.749Z,101247.75
2023-04-28T12:42:57.964Z,101246.16
2023-04-28T12:45:26.284Z,101245.62
2023-04-28T12:47:55.613Z,101242.63
2023-04-28T12:50:25.801Z,101242.05
2023-04-28T12:52:53.869Z,101244.52
2023-04-28T12:55:21.937Z,101248.58
2023-04-28T12:57:50.243Z,101246.23
2023-04-28T13:00:21.382Z,101243.35
2023-04-28T13:02:51.468Z,101239.92
2023-04-28T13:05:20.203Z,101243.14
2023-04-28T13:07:50.857Z,101244.02
2023-04-28T13:10:19.273Z,101245.30
2023-04-28T13:12:47.502Z,101245.38
2023-04-28T13:15:15.942Z,101239.86
2023-04-28T13:17:46.426Z,101235.54
2023-04-28T13:20:14.652Z,101236.41
2023-04-28T13:22:42.963Z,101234.55
2023-04-28T13:25:11.770Z,101231.96
2023-04-28T13:27:41.917Z,101229.51
2023-04-28T13:30:12.214Z,101229.66
2023-04-28T13:32:40.732Z,101229.96
2023-04-28T13:35:09.682Z,101226.77
2023-04-28T13:37:42.794Z,101227.46
2023-04-28T13:40:11.867Z,101226.36
2023-04-28T13:42:40.165Z,101219.04
2023-04-28T13:45:08.647Z,101223.04
2023-04-28T13:47:36.728Z,101222.84
2023-04-28T13:50:05.215Z,101218.61
2023-04-28T13:52:33.307Z,101216.46
2023-04-28T13:55:01.441Z,101214.69
2023-04-28T13:57:29.748Z,101211.26
2023-04-28T13:59:57.905Z,101210.92
2023-04-28T14:02:27.522Z,101211.40
2023-04-28T14:04:56.023Z,101209.83
2023-04-28T14:07:24.272Z,101207.98
2023-04-28T14:09:52.383Z,101205.19
2023-04-28T14:12:20.596Z,101198.84
2023-04-28T14:14:49.581Z,101196.70
2023-04-28T14:17:17.856Z,101192.15
2023-04-28T14:19:46.841Z,101193.52
2023-04-28T14:22:15.203Z,101196.30
2023-04-28T14:24:43.696Z,101195.25
2023-04-28T14:27:11.771Z,101192.30
2023-04-28T14:29:40.172Z,101189.45
2023-04-28T14:32:08.305Z,101189.46
2023-04-28T14:34:36.606Z,101189.41
2023-04-28T14:37:04.761Z,101187.71
2023-04-28T14:39:32.890Z,101181.30
2023-04-28T14:42:00.962Z,101178.27
2023-04-28T14:44:29.096Z,101176.62
2023-04-28T14:46:57.237Z,101177.53
2023-04-28T14:49:27.585Z,101177.70
2023-04-28T14:51:55.731Z,101175.88
2023-04-28T14:54:23.964Z,101175.86
2023-04-28T14:56:52.031Z,101169.27
2023-04-28T14:59:20.690Z,101167.52
2023-04-28T15:01:50.810Z,101168.16
2023-04-28T15:04:19.570Z,101167.31
2023-04-28T15:06:48.172Z,101170.38
2023-04-28T15:09:16.320Z,101166.80
2023-04-28T15:11:44.333Z,101162.69
2023-04-28T15:14:12.435Z,101158.92
2023-04-28T15:16:40.892Z,101164.41
2023-04-28T15:19:08.998Z,101164.35
2023-04-28T15:21:37.421Z,101166.16
2023-04-28T15:24:05.855Z,101165.05
2023-04-28T15:26:33.883Z,101161.40
2023-04-28T15:29:02.319Z,101158.43
2023-04-28T15:31:30.518Z,101157.96
2023-04-28T15:33:58.946Z,101156.65
2023-04-28T15:36:27.075Z,101151.83
2023-04-28T15:38:56.316Z,101154.60
2023-04-28T15:41:25.096Z,101155.31
2023-04-28T15:43:53.434Z,101156.46
2023-04-28T15:46:21.784Z,101156.13
2023-04-28T15:48:50.094Z,101153.98
2023-04-28T15:51:18.751Z,101155.08
2023-04-28T15:53:46.815Z,101156.55
2023-04-28T15:56:15.079Z,101156.49
2023-04-28T15:58:43.803Z,101155.58
2023-04-28T16:01:11.860Z,101152.48
2023-04-28T16:03:40.491Z,101153.04
2023-04-28T16:06:09.565Z,101150.05
2023-04-28T16:08:37.830Z,101151.55
2023-04-28T16:11:06.087Z,101154.00
2023-04-28T16:13:37.155Z,101151.81
2023-04-28T16:16:07.636Z,101149.41
2023-04-28T16:18:36.879Z,101149.63
2023-04-28T16:21:05.155Z,101151.28
2023-04-28T16:23:33.559Z,101152.96
2023-04-28T16:26:01.651Z,101156.92
2023-04-28T16:28:29.774Z,101154.94
2023-04-28T16:30:57.884Z,101152.07
2023-04-28T16:33:25.954Z,101150.52
2023-04-28T16:35:56.067Z,101151.48
2023-04-28T16:38:24.361Z,101151.62
2023-04-28T16:40:52.626Z,101150.89
2023-04-28T16:43:21.253Z,101148.76
2023-04-28T16:45:49.677Z,101148.51
2023-04-28T16:48:18.660Z,101148.47
2023-04-28T16:50:46.828Z,101146.95
2023-04-28T16:53:14.969Z,101138.84
2023-04-28T16:55:43.264Z,101139.86
2023-04-28T16:58:11.737Z,101137.32
2023-04-28T17:00:39.811Z,101139.16
2023-04-28T17:03:08.104Z,101135.05
2023-04-28T17:05:36.707Z,101131.91
2023-04-28T17:08:04.877Z,101135.66
2023-04-28T17:10:33.060Z,101135.00
2023-04-28T17:13:01.380Z,101136.52
2023-04-28T17:15:29.980Z,101133.11
2023-04-28T17:17:58.148Z,101128.53
2023-04-28T17:20:26.388Z,101123.30
2023-04-28T17:22:54.816Z,101124.51
2023-04-28T17:25:24.047Z,101120.83
2023-04-28T17:27:52.276Z,101120.84
2023-04-28T17:30:20.509Z,101121.22
2023-04-28T17:32:48.652Z,101121.57
2023-04-28T17:35:16.813Z,101119.11
2023-04-28T17:37:45.007Z,101116.63
2023-04-28T17:40:13.405Z,101111.85
2023-04-28T17:42:41.807Z,101111.98
2023-04-28T17:45:10.939Z,101117.05
2023-04-28T17:47:39.181Z,101115.61
2023-04-28T17:50:07.986Z,101116.49
2023-04-28T17:52:36.513Z,101116.48
2023-04-28T17:55:05.124Z,101115.29
2023-04-28T17:57:33.391Z,101116.48
2023-04-28T18:00:01.742Z,101115.21
2023-04-28T18:02:40.109Z,101115.16
2023-04-28T18:05:09.086Z,101112.80
2023-04-28T18:07:37.849Z,101111.42
2023-04-28T18:10:06.300Z,101109.00
2023-04-28T18:12:34.620Z,101106.22
2023-04-28T18:15:03.019Z,101103.30
2023-04-28T18:17:31.576Z,101104.55
2023-04-28T18:20:00.004Z,101104.20
2023-04-28T18:22:28.298Z,101104.69
2023-04-28T18:24:57.745Z,101103.61
2023-04-28T18:27:26.060Z,101100.98
2023-04-28T18:29:54.138Z,101101.02
2023-04-28T18:32:22.574Z,101101.95
2023-04-28T18:34:50.718Z,101102.08
2023-04-28T18:37:19.089Z,101102.41
2023-04-28T18:39:47.453Z,101100.27
2023-04-28T18:42:15.445Z,101102.10
2023-04-28T18:44:43.514Z,101099.92
2023-04-28T18:47:12.899Z,101101.23
2023-04-28T18:49:41.058Z,101100.98
2023-04-28T18:52:09.082Z,101098.31
2023-04-28T18:54:37.535Z,101099.44
2023-04-28T18:57:06.728Z,101099.86
2023-04-28T18:59:34.898Z,101099.23
2023-04-28T19:02:03.456Z,101097.55
2023-04-28T19:04:31.554Z,101097.91
2023-04-28T19:06:59.669Z,101098.80
2023-04-28T19:09:28.016Z,101096.96
2023-04-28T19:11:56.788Z,101095.98
2023-04-28T19:14:25.082Z,101091.06
2023-04-28T19:16:53.464Z,101090.48
2023-04-28T19:19:21.700Z,101087.75
2023-04-28T19:21:50.957Z,101087.42
2023-04-28T19:24:19.310Z,101088.16
2023-04-28T19:26:47.376Z,101091.30
2023-04-28T19:29:17.394Z,101093.63
2023-04-28T19:31:45.891Z,101090.73
2023-04-28T19:34:14.175Z,101086.63
2023-04-28T19:36:42.431Z,101085.34
2023-04-28T19:39:10.428Z,101081.95
2023-04-28T19:41:38.436Z,101078.35
2023-04-28T19:44:06.465Z,101077.15
2023-04-28T19:46:34.631Z,101073.69
2023-04-28T19:49:03.653Z,101074.03
2023-04-28T19:51:31.741Z,101073.34
2023-04-28T19:53:59.953Z,101074.23
2023-04-28T19:56:28.436Z,101073.70
2023-04-28T19:58:56.454Z,101072.15
2023-04-28T20:01:24.691Z,101072.20
2023-04-28T20:03:54.299Z,101069.27
2023-04-28T20:06:22.526Z,101073.97
2023-04-28T20:08:51.133Z,101075.84
2023-04-28T20:11:19.741Z,101075.83
2023-04-28T20:13:48.473Z,101077.39
2023-04-28T20:16:17.339Z,101077.92
2023-04-28T20:18:45.970Z,101079.13
2023-04-28T20:21:14.087Z,101080.86
2023-04-28T20:23:42.373Z,101078.81
2023-04-28T20:26:16.627Z,101075.36
2023-04-28T20:28:46.777Z,101075.57
2023-04-28T20:31:15.471Z,101072.29
2023-04-28T20:33:43.605Z,101072.09
2023-04-28T20:36:13.050Z,101066.69
2023-04-28T20:38:43.484Z,101065.63
2023-04-28T20:41:12.266Z,101060.64
2023-04-28T20:43:41.104Z,101054.60
2023-04-28T20:46:10.409Z,101055.64
2023-04-28T20:48:38.620Z,101052.88
2023-04-28T20:51:07.612Z,101054.08
2023-04-28T20:53:35.749Z,101052.69
2023-04-28T20:56:04.240Z,101051.48
2023-04-28T20:58:32.398Z,101046.80
2023-04-28T21:01:01.487Z,101042.84
2023-04-28T21:03:30.835Z,101044.05
2023-04-28T21:05:59.125Z,101043.70
2023-04-28T21:08:29.421Z,101040.91
2023-04-28T21:10:57.450Z,101041.73
2023-04-28T21:13:25.516Z,101037.91
2023-04-28T21:15:53.947Z,101039.29
2023-04-28T21:18:22.008Z,101034.41
2023-04-28T21:20:51.249Z,101032.13
2023-04-28T21:23:19.810Z,101034.05
2023-04-28T21:25:47.958Z,101030.80
2023-04-28T21:28:16.458Z,101031.17
2023-04-28T21:30:44.498Z,101027.02
2023-04-28T21:33:12.669Z,101021.48
2023-04-28T21:35:40.748Z,101020.76
2023-04-28T21:38:10.992Z,101018.64
2023-04-28T21:40:39.370Z,101019.63
2023-04-28T21:43:08.301Z,101011.63
2023-04-28T21:45:36.462Z,101013.46
2023-04-28T21:48:04.974Z,101011.34
2023-04-28T21:50:33.095Z,101013.91
2023-04-28T21:53:01.149Z,101010.79
2023-04-28T21:55:29.309Z,101011.11
2023-04-28T21:57:59.997Z,101006.58
2023-04-28T22:00:28.557Z,101005.90
2023-04-28T22:02:57.892Z,101005.09
2023-04-28T22:05:26.221Z,101003.70
2023-04-28T22:07:54.272Z,101005.08
2023-04-28T22:10:22.914Z,101004.08
2023-04-28T22:12:51.023Z,101005.42
2023-04-28T22:15:19.254Z,101005.40
2023-04-28T22:17:47.799Z,101003.45
2023-04-28T22:20:16.067Z,101004.66
2023-04-28T22:22:44.123Z,100999.85
2023-04-28T22:25:12.442Z,100999.56
2023-04-28T22:27:40.696Z,100996.34
2023-04-28T22:30:10.047Z,100992.39
2023-04-28T22:32:38.390Z,100990.23
2023-04-28T22:35:07.124Z,100989.05
2023-04-28T22:37:35.570Z,100988.43
2023-04-28T22:40:04.734Z,100984.89
2023-04-28T22:42:42.837Z,100983.73
2023-04-28T22:45:11.915Z,100981.52
2023-04-28T22:47:41.180Z,100984.48
2023-04-28T22:50:10.908Z,100980.35
2023-04-28T22:52:39.311Z,100973.59
2023-04-28T22:55:07.919Z,100973.06
2023-04-28T22:57:36.582Z,100971.65
2023-04-28T23:00:06.030Z,100965.90
2023-04-28T23:02:34.240Z,100963.98
2023-04-28T23:05:02.496Z,100962.94
2023-04-28T23:07:30.676Z,100961.91
2023-04-28T23:09:58.757Z,100957.77
2023-04-28T23:12:26.944Z,100955.36
2023-04-28T23:14:55.777Z,100952.79
2023-04-28T23:17:24.633Z,100952.83
2023-04-28T23:19:52.873Z,100950.58
2023-04-28T23:22:21.413Z,100949.91
2023-04-28T23:24:49.447Z,100946.33
2023-04-28T23:27:17.859Z,100943.41
2023-04-28T23:29:45.942Z,100940.13
2023-04-28T23:32:13.960Z,100935.49
2023-04-28T23:34:42.848Z,100934.86
2023-04-28T23:37:10.947Z,100931.29
2023-04-28T23:39:38.987Z,100928.58
2023-04-28T23:42:07.528Z,100927.77
2023-04-28T23:44:35.793Z,100921.94
2023-04-28T23:47:03.840Z,100920.27
2023-04-28T23:49:31.896Z,100918.07
2023-04-28T23:51:59.928Z,100916.53
2023-04-28T23:54:27.968Z,100913.42
2023-04-28T23:56:56.994Z,100908.41
2023-04-28T23:59:25.787Z,100903.05
